Bethany Beach, Delaware
Current Conditions -  °F | °C
As of 6:32 PM on Monday 22 Dec 2014 (Local Time) from KOXB Reporting Station
Overcast Overcast  
Wind Chill: 43°   Ceiling: 3200
Heat Index: 47°   Visibility: 10mi
Dew Point: 45°   Wind: 8mph
Humidity: 93%   Direction: 50°NE
Pressure: 30.1"   Gusts: NA
Location:  38.54°N, 75.06°W
Report Text: KOXB 222332Z AUTO 05007KT 10SM SCT015 BKN032 OVC085 08/07 A3010 RMK AO2 T00830072 TSNO
Loading
Personal Weather Stations






























Interactive Weather Map New forecast layout! Learn more

10-Day Weather Forecast

Advertisements
Track Severe Weather on mobile